Time;durP1;ratioP1;P1;durP2;ratioP2;P2;SDS_P1;SDS_P2;PMS_P1;PMS_P2;Temp;Humidity;BMP_temperature;BMP_pressure;BME280_temperature;BME280_humidity;BME280_pressure;Samples;Min_cycle;Max_cycle;Signal;HPM_P1;HPM_P2
2022/11/20 00:01:59;;;;;;;;;;;;;;;1.15;100.00;98523.06;5059911;28;19935;-48
2022/11/20 00:04:24;;;;;;;;;;;;;;;1.48;100.00;98525.53;5058656;28;20308;-47
2022/11/20 00:06:49;;;;;;;;;;;;;;;1.86;100.00;98515.22;5060026;28;20231;-47
2022/11/20 00:09:14;;;;;;;;;;;;;;;2.34;100.00;98508.16;5060423;28;19944;-47
2022/11/20 00:11:40;;;;;;;;;;;;;;;2.17;100.00;98504.91;5058329;28;19927;-47
2022/11/20 00:14:05;;;;;;;;;;;;;;;2.50;100.00;98497.03;5038032;28;19924;-47
2022/11/20 00:16:31;;;;;;;;;;;;;;;3.05;100.00;98494.84;5059544;28;19925;-47
2022/11/20 00:18:56;;;;;;;;;;;;;;;3.30;100.00;98473.38;5057327;28;19939;-49
2022/11/20 00:21:22;;;;;;;;;;;;;;;2.99;100.00;98483.06;5058785;28;20154;-47
2022/11/20 00:23:47;;;;;;;;;;;;;;;2.86;100.00;98484.03;5056278;28;20487;-47
2022/11/20 00:26:14;;;;;;;;;;;;;;;2.30;100.00;98496.31;5058239;28;19916;-47
2022/11/20 00:28:39;;;;;;;;;;;;;;;2.93;100.00;98478.84;5058207;28;19954;-47
2022/11/20 00:31:06;;;;;;;;;;;;;;;2.90;100.00;98480.59;5059943;28;19916;-46
2022/11/20 00:33:31;;;;;;;;;;;;;;;2.54;100.00;98479.22;5059200;28;20046;-50
2022/11/20 00:36:03;;;;;;;;;;;;;;;2.68;100.00;98483.31;5059437;28;19966;-47
2022/11/20 00:38:29;;;;;;;;;;;;;;;2.84;100.00;98478.09;5040693;28;19921;-47
2022/11/20 00:40:55;;;;;;;;;;;;;;;2.86;100.00;98479.78;5058676;28;19920;-47
2022/11/20 00:43:20;;;;;;;;;;;;;;;3.03;100.00;98468.59;5041455;28;20546;-48
2022/11/20 00:45:45;;;;;;;;;;;;;;;3.04;100.00;98470.28;5059839;28;19921;-48
2022/11/20 00:48:10;;;;;;;;;;;;;;;2.63;100.00;98479.16;5058338;28;19916;-46
2022/11/20 00:50:36;;;;;;;;;;;;;;;2.43;100.00;98497.94;5059303;28;19971;-47
2022/11/20 00:53:01;;;;;;;;;;;;;;;2.05;100.00;98505.78;5041213;28;20373;-48
2022/11/20 00:55:26;;;;;;;;;;;;;;;2.81;100.00;98499.31;5059583;28;20253;-47
2022/11/20 00:57:51;;;;;;;;;;;;;;;2.66;100.00;98489.28;5059275;28;19931;-47
2022/11/20 01:00:17;;;;;;;;;;;;;;;2.38;100.00;98499.66;5057783;28;19920;-47
2022/11/20 01:02:42;;;;;;;;;;;;;;;2.11;100.00;98517.63;5058085;28;19977;-47
2022/11/20 01:05:07;;;;;;;;;;;;;;;2.51;100.00;98518.22;5058875;28;19920;-46
2022/11/20 01:07:32;;;;;;;;;;;;;;;2.20;100.00;98509.97;5041543;28;20018;-47
2022/11/20 01:09:58;;;;;;;;;;;;;;;2.64;100.00;98501.16;5058174;28;19916;-47
2022/11/20 01:12:23;;;;;;;;;;;;;;;2.57;100.00;98500.38;5057083;28;19927;-48
2022/11/20 01:14:48;;;;;;;;;;;;;;;2.76;100.00;98501.06;5057287;28;21187;-50
2022/11/20 01:17:13;;;;;;;;;;;;;;;2.90;100.00;98494.16;5054971;28;19928;-48
2022/11/20 01:19:38;;;;;;;;;;;;;;;2.93;100.00;98483.09;5057039;28;19929;-47
2022/11/20 01:22:04;;;;;;;;;;;;;;;2.95;100.00;98495.81;5039631;28;19921;-47
2022/11/20 01:24:29;;;;;;;;;;;;;;;3.00;100.00;98484.72;5058769;28;19978;-46
2022/11/20 01:26:54;;;;;;;;;;;;;;;2.39;100.00;98495.41;5059118;28;19935;-47
2022/11/20 01:29:21;;;;;;;;;;;;;;;2.85;100.00;98490.81;5057169;28;19964;-47
2022/11/20 01:31:46;;;;;;;;;;;;;;;3.03;100.00;98488.94;5040315;28;19924;-47
2022/11/20 01:34:12;;;;;;;;;;;;;;;3.10;100.00;98490.56;5057717;28;19920;-47
2022/11/20 01:36:38;;;;;;;;;;;;;;;2.91;100.00;98485.66;5056513;28;20249;-46
2022/11/20 01:39:04;;;;;;;;;;;;;;;2.38;100.00;98502.22;5056547;28;19921;-47
2022/11/20 01:44:16;;;;;;;;;;;;;;;2.70;100.00;98496.88;5058493;28;20499;-46
2022/11/20 01:46:57;;;;;;;;;;;;;;;2.85;100.00;98490.81;5039849;28;19920;-47
2022/11/20 01:49:23;;;;;;;;;;;;;;;2.75;100.00;98496.81;5056303;28;20364;-46
2022/11/20 01:51:52;;;;;;;;;;;;;;;2.46;100.00;98491.97;5058864;28;19952;-46
2022/11/20 01:54:19;;;;;;;;;;;;;;;2.45;100.00;98503.84;5040870;28;19917;-46
2022/11/20 01:56:45;;;;;;;;;;;;;;;2.65;100.00;98490.16;5039148;28;19916;-47
2022/11/20 01:59:12;;;;;;;;;;;;;;;1.91;100.00;98503.34;5038382;28;20370;-46
2022/11/20 02:01:38;;;;;;;;;;;;;;;1.91;100.00;98502.50;5022408;28;19916;-46
2022/11/20 02:04:04;;;;;;;;;;;;;;;2.15;100.00;98507.44;5057829;28;19920;-47
2022/11/20 02:06:30;;;;;;;;;;;;;;;2.11;100.00;98504.94;5039903;28;20343;-49
2022/11/20 02:08:55;;;;;;;;;;;;;;;2.28;100.00;98505.66;5039593;28;20010;-46
2022/11/20 02:11:21;;;;;;;;;;;;;;;1.54;100.00;98512.81;5057482;28;20367;-46
2022/11/20 02:13:46;;;;;;;;;;;;;;;2.06;100.00;98513.41;5057837;28;20388;-46
2022/11/20 02:16:14;;;;;;;;;;;;;;;2.30;100.00;98496.31;5058166;28;19932;-46
2022/11/20 02:18:40;;;;;;;;;;;;;;;2.44;100.00;98483.53;5055854;28;19973;-46
2022/11/20 02:21:07;;;;;;;;;;;;;;;1.84;100.00;98486.44;5058171;28;19916;-47
2022/11/20 02:23:39;;;;;;;;;;;;;;;2.18;100.00;98491.34;5040471;28;19945;-47
2022/11/20 02:26:06;;;;;;;;;;;;;;;2.14;100.00;98489.66;5039880;28;19912;-47
2022/11/20 02:28:31;;;;;;;;;;;;;;;2.20;100.00;98487.94;5022082;28;19920;-47
2022/11/20 02:30:56;;;;;;;;;;;;;;;1.47;100.00;98501.84;5057421;28;19927;-48
2022/11/20 02:33:21;;;;;;;;;;;;;;;1.55;100.00;98491.66;5059302;28;20003;-47
2022/11/20 02:35:47;;;;;;;;;;;;;;;1.17;100.00;98498.56;5058415;28;19932;-46
2022/11/20 02:38:12;;;;;;;;;;;;;;;1.03;100.00;98500.28;5037521;28;19927;-47
2022/11/20 02:40:37;;;;;;;;;;;;;;;0.60;100.00;98511.28;5038967;28;20404;-47
2022/11/20 02:43:03;;;;;;;;;;;;;;;1.22;100.00;98496.00;5057489;28;19980;-47
2022/11/20 02:45:28;;;;;;;;;;;;;;;0.97;100.00;98502.81;5039911;28;20003;-47
2022/11/20 02:47:53;;;;;;;;;;;;;;;1.35;100.00;98506.97;5038726;28;19917;-48
2022/11/20 02:50:18;;;;;;;;;;;;;;;1.88;100.00;98499.13;5060428;28;20301;-47
2022/11/20 02:52:44;;;;;;;;;;;;;;;1.62;100.00;98486.56;5062258;28;19920;-47
2022/11/20 02:55:09;;;;;;;;;;;;;;;1.49;100.00;98482.38;5060319;28;19928;-46
2022/11/20 02:57:35;;;;;;;;;;;;;;;2.11;100.00;98484.63;5059488;28;19931;-47
2022/11/20 03:00:00;;;;;;;;;;;;;;;1.89;100.00;98479.66;5059307;28;19920;-47
2022/11/20 03:02:27;;;;;;;;;;;;;;;1.45;100.00;98483.25;5061736;28;20640;-47
2022/11/20 03:04:52;;;;;;;;;;;;;;;2.29;100.00;98479.41;5043160;28;19920;-46
2022/11/20 03:07:18;;;;;;;;;;;;;;;2.57;100.00;98479.19;5060917;28;20499;-46
2022/11/20 03:09:43;;;;;;;;;;;;;;;2.76;100.00;98473.09;5059268;28;19966;-46
2022/11/20 03:12:08;;;;;;;;;;;;;;;2.95;100.00;98467.84;5060805;28;20424;-47
2022/11/20 03:14:34;;;;;;;;;;;;;;;3.10;100.00;98470.22;5061156;28;20467;-46
2022/11/20 03:16:59;;;;;;;;;;;;;;;3.06;100.00;98473.66;5058493;28;20015;-47
2022/11/20 03:19:24;;;;;;;;;;;;;;;3.33;100.00;98473.38;5060114;28;20332;-46
2022/11/20 03:21:49;;;;;;;;;;;;;;;3.38;100.00;98467.38;5043537;28;19971;-48
2022/11/20 03:24:15;;;;;;;;;;;;;;;3.34;100.00;98467.41;5060248;28;19923;-47
2022/11/20 03:26:40;;;;;;;;;;;;;;;3.43;100.00;98457.97;5042645;28;19920;-47
2022/11/20 03:29:05;;;;;;;;;;;;;;;3.53;100.00;98454.44;5058310;28;19917;-47
2022/11/20 03:31:32;;;;;;;;;;;;;;;3.19;100.00;98454.00;5059644;28;20472;-46
2022/11/20 03:33:57;;;;;;;;;;;;;;;3.38;100.00;98459.75;5060820;28;19928;-47
2022/11/20 03:36:23;;;;;;;;;;;;;;;3.62;100.00;98458.59;5061546;28;19916;-47
2022/11/20 03:38:48;;;;;;;;;;;;;;;3.65;100.00;98454.31;5039210;28;20023;-46
2022/11/20 03:41:14;;;;;;;;;;;;;;;3.74;100.00;98450.78;5060007;28;19926;-47
2022/11/20 03:43:40;;;;;;;;;;;;;;;3.81;100.00;98439.66;5059700;28;19955;-47
2022/11/20 03:46:05;;;;;;;;;;;;;;;3.59;100.00;98439.09;5042923;28;19920;-48
2022/11/20 03:48:30;;;;;;;;;;;;;;;3.71;100.00;98438.94;5058595;28;19927;-46
2022/11/20 03:51:11;;;;;;;;;;;;;;;3.34;100.00;98448.75;5059893;28;20382;-48
2022/11/20 03:53:36;;;;;;;;;;;;;;;2.06;100.00;98462.63;5058940;28;20134;-47
2022/11/20 03:56:01;;;;;;;;;;;;;;;2.68;100.00;98482.50;5059382;28;19916;-48
2022/11/20 03:58:26;;;;;;;;;;;;;;;3.63;100.00;98461.13;5040128;28;19969;-49
2022/11/20 04:00:52;;;;;;;;;;;;;;;3.69;100.00;98450.84;5056070;28;19924;-47
2022/11/20 04:03:17;;;;;;;;;;;;;;;3.77;100.00;98456.69;5060720;28;20462;-51
2022/11/20 04:05:42;;;;;;;;;;;;;;;3.63;100.00;98461.13;5040598;28;20309;-47
2022/11/20 04:08:07;;;;;;;;;;;;;;;3.67;100.00;98465.31;5059761;28;20292;-47
2022/11/20 04:10:33;;;;;;;;;;;;;;;3.54;100.00;98468.88;5060336;28;20046;-47
2022/11/20 04:12:58;;;;;;;;;;;;;;;3.61;100.00;98467.09;5059893;28;20355;-48
2022/11/20 04:15:23;;;;;;;;;;;;;;;3.30;100.00;98470.00;5057093;28;19932;-47
2022/11/20 04:17:48;;;;;;;;;;;;;;;3.53;100.00;98464.63;5058984;28;20019;-49
2022/11/20 04:20:14;;;;;;;;;;;;;;;3.09;100.00;98471.09;5057963;28;20604;-47
2022/11/20 04:22:39;;;;;;;;;;;;;;;3.86;100.00;98459.97;5059560;28;19917;-49
2022/11/20 04:25:05;;;;;;;;;;;;;;;3.74;100.00;98463.50;5057169;28;19920;-48
2022/11/20 04:27:30;;;;;;;;;;;;;;;4.13;100.00;98454.50;5059194;28;19927;-47
2022/11/20 04:29:55;;;;;;;;;;;;;;;4.07;100.00;98435.91;5057466;28;20011;-47
2022/11/20 04:32:20;;;;;;;;;;;;;;;3.48;100.00;98453.66;5040815;28;19968;-50
2022/11/20 04:34:46;;;;;;;;;;;;;;;2.87;100.00;98453.50;5025075;28;19928;-48
2022/11/20 04:37:11;;;;;;;;;;;;;;;3.77;100.00;98456.69;5058913;28;19966;-48
2022/11/20 04:39:36;;;;;;;;;;;;;;;4.01;100.00;98449.56;5056237;28;19977;-49
2022/11/20 04:44:45;;;;;;;;;;;;;;;3.75;100.00;98455.03;5060214;28;19946;-47
2022/11/20 04:47:10;;;;;;;;;;;;;;;3.69;100.00;98455.09;5058628;28;19920;-47
2022/11/20 04:49:35;;;;;;;;;;;;;;;3.84;100.00;98454.06;5058712;28;19956;-47
2022/11/20 04:52:01;;;;;;;;;;;;;;;3.51;100.00;98451.94;5059546;28;19920;-48
2022/11/20 04:54:26;;;;;;;;;;;;;;;3.81;100.00;98449.84;5060021;28;19920;-47
2022/11/20 04:56:51;;;;;;;;;;;;;;;3.40;100.00;98447.81;5058671;28;19974;-46
2022/11/20 04:59:16;;;;;;;;;;;;;;;2.72;100.00;98464.66;5059078;28;20957;-47
2022/11/20 05:01:42;;;;;;;;;;;;;;;3.12;100.00;98463.41;5056188;28;20373;-47
2022/11/20 05:04:07;;;;;;;;;;;;;;;2.56;100.00;98467.34;5059457;28;19921;-48
2022/11/20 05:06:32;;;;;;;;;;;;;;;2.24;100.00;98473.53;5058625;28;20297;-47
2022/11/20 05:08:58;;;;;;;;;;;;;;;2.74;100.00;98474.81;5058267;28;19943;-47
2022/11/20 05:11:23;;;;;;;;;;;;;;;3.10;100.00;98467.66;5058608;28;19917;-48
2022/11/20 05:13:48;;;;;;;;;;;;;;;3.60;100.00;98463.69;5055286;28;19960;-47
2022/11/20 05:16:15;;;;;;;;;;;;;;;4.15;100.00;98440.03;5057762;28;20343;-47
2022/11/20 05:18:40;;;;;;;;;;;;;;;3.12;100.00;98448.13;5039481;28;19955;-47
2022/11/20 05:21:06;;;;;;;;;;;;;;;3.39;100.00;98449.53;5039580;28;19963;-47
2022/11/20 05:23:32;;;;;;;;;;;;;;;3.28;100.00;98449.66;5058417;28;19920;-48
2022/11/20 05:25:57;;;;;;;;;;;;;;;3.37;100.00;98443.59;5040196;28;20396;-49
2022/11/20 05:28:23;;;;;;;;;;;;;;;4.14;100.00;98438.31;5058666;28;20370;-48
2022/11/20 05:30:49;;;;;;;;;;;;;;;4.44;100.00;98431.06;5059133;28;19916;-48
2022/11/20 05:33:14;;;;;;;;;;;;;;;4.68;100.00;98421.31;5058467;28;20287;-48
2022/11/20 05:35:40;;;;;;;;;;;;;;;4.76;100.00;98419.47;5058827;28;19931;-50
2022/11/20 05:38:05;;;;;;;;;;;;;;;4.85;100.00;98411.63;5055450;28;19920;-48
2022/11/20 05:40:30;;;;;;;;;;;;;;;4.32;100.00;98415.97;5059190;28;20015;-48
2022/11/20 05:42:55;;;;;;;;;;;;;;;4.15;100.00;98423.88;5059094;28;19920;-48
2022/11/20 05:45:20;;;;;;;;;;;;;;;3.81;100.00;98433.72;5038901;28;19920;-48
2022/11/20 05:47:46;;;;;;;;;;;;;;;3.92;100.00;98442.03;5057933;28;19960;-47
2022/11/20 05:50:11;;;;;;;;;;;;;;;4.64;100.00;98433.28;5057462;28;19919;-48
2022/11/20 05:52:36;;;;;;;;;;;;;;;4.17;100.00;98437.44;5059425;28;19920;-47
2022/11/20 05:55:01;;;;;;;;;;;;;;;4.62;100.00;98419.72;5057597;28;20148;-48
2022/11/20 05:57:27;;;;;;;;;;;;;;;4.80;100.00;98413.44;5057857;28;19920;-48
2022/11/20 05:59:52;;;;;;;;;;;;;;;4.85;100.00;98409.09;5054825;28;19920;-49
2022/11/20 06:02:17;;;;;;;;;;;;;;;4.95;100.00;98392.75;5058969;28;19916;-48
2022/11/20 06:04:42;;;;;;;;;;;;;;;4.95;100.00;98387.66;5057468;28;19916;-47
2022/11/20 06:07:08;;;;;;;;;;;;;;;4.89;100.00;98394.59;5057660;28;19921;-47
2022/11/20 06:09:33;;;;;;;;;;;;;;;4.83;100.00;98403.16;5040403;28;19921;-48
2022/11/20 06:11:58;;;;;;;;;;;;;;;4.35;100.00;98410.81;5040771;28;19920;-49
2022/11/20 06:14:23;;;;;;;;;;;;;;;4.72;100.00;98412.72;5057623;28;19920;-48
2022/11/20 06:16:49;;;;;;;;;;;;;;;4.87;100.00;98409.91;5055438;28;19974;-48
2022/11/20 06:19:15;;;;;;;;;;;;;;;4.97;100.00;98397.81;5056374;28;20073;-50
2022/11/20 06:21:40;;;;;;;;;;;;;;;4.95;100.00;98400.41;5040639;28;20297;-47
2022/11/20 06:24:05;;;;;;;;;;;;;;;5.08;100.00;98397.59;5061414;28;19912;-48
2022/11/20 06:26:30;;;;;;;;;;;;;;;5.15;100.00;98397.44;5042920;28;19946;-49
2022/11/20 06:28:56;;;;;;;;;;;;;;;5.02;100.00;98394.31;5042855;28;20638;-47
2022/11/20 06:31:22;;;;;;;;;;;;;;;5.02;100.00;98391.75;5060664;28;19920;-48
2022/11/20 06:33:47;;;;;;;;;;;;;;;4.82;100.00;98409.16;5061585;28;19927;-49
2022/11/20 06:36:13;;;;;;;;;;;;;;;4.89;100.00;98395.41;5061750;28;19913;-48
2022/11/20 06:38:39;;;;;;;;;;;;;;;4.87;100.00;98402.25;5059110;28;20507;-49
2022/11/20 06:41:05;;;;;;;;;;;;;;;4.90;100.00;98394.53;5044541;28;19916;-47
2022/11/20 06:43:30;;;;;;;;;;;;;;;4.93;100.00;98394.50;5042493;28;19927;-48
2022/11/20 06:45:56;;;;;;;;;;;;;;;4.98;100.00;98390.13;5061784;28;19920;-47
2022/11/20 06:48:21;;;;;;;;;;;;;;;5.08;100.00;98389.94;5058564;28;20020;-47
2022/11/20 06:50:47;;;;;;;;;;;;;;;4.94;100.00;98391.06;5061382;28;19916;-47
2022/11/20 06:53:12;;;;;;;;;;;;;;;4.92;100.00;98397.06;5060100;28;19928;-49
2022/11/20 06:55:41;;;;;;;;;;;;;;;4.88;100.00;98391.19;5042338;28;19920;-48
2022/11/20 06:58:06;;;;;;;;;;;;;;;4.86;100.00;98407.38;5042462;28;19920;-47
2022/11/20 07:00:32;;;;;;;;;;;;;;;4.79;100.00;98396.47;5059245;28;20442;-49
2022/11/20 07:02:57;;;;;;;;;;;;;;;4.76;100.00;98406.72;5059053;28;20437;-48
2022/11/20 07:05:22;;;;;;;;;;;;;;;4.66;100.00;98411.13;5059630;28;19951;-47
2022/11/20 07:07:47;;;;;;;;;;;;;;;4.61;100.00;98411.22;5059065;28;20833;-48
2022/11/20 07:10:13;;;;;;;;;;;;;;;4.59;100.00;98418.06;5060582;28;19923;-48
2022/11/20 07:12:38;;;;;;;;;;;;;;;4.64;100.00;98422.25;5061329;28;19926;-49
2022/11/20 07:15:03;;;;;;;;;;;;;;;4.60;100.00;98424.81;5061280;28;19928;-49
2022/11/20 07:17:29;;;;;;;;;;;;;;;4.61;100.00;98426.53;5060518;28;20010;-47
2022/11/20 07:19:54;;;;;;;;;;;;;;;4.73;100.00;98432.28;5060167;28;19921;-48
2022/11/20 07:22:21;;;;;;;;;;;;;;;4.76;100.00;98430.50;5041723;28;19917;-48
2022/11/20 07:24:46;;;;;;;;;;;;;;;3.81;100.00;98443.91;5060115;28;19978;-48
2022/11/20 07:27:11;;;;;;;;;;;;;;;4.34;100.00;98427.00;5042327;28;19916;-47
2022/11/20 07:29:37;;;;;;;;;;;;;;;4.46;100.00;98421.69;5059056;28;19973;-49
2022/11/20 07:32:02;;;;;;;;;;;;;;;4.49;100.00;98415.69;5059952;28;19921;-48
2022/11/20 07:34:27;;;;;;;;;;;;;;;4.52;100.00;98419.03;5041787;28;20055;-48
2022/11/20 07:36:53;;;;;;;;;;;;;;;4.55;100.00;98413.88;5041934;28;20338;-49
2022/11/20 07:39:18;;;;;;;;;;;;;;;4.65;100.00;98414.53;5056897;28;19924;-47
2022/11/20 07:41:43;;;;;;;;;;;;;;;4.73;100.00;98424.63;5059682;28;19974;-48
2022/11/20 07:44:08;;;;;;;;;;;;;;;4.72;100.00;98423.78;5059038;28;19963;-49
2022/11/20 07:46:33;;;;;;;;;;;;;;;4.61;100.00;98434.19;5058332;28;19927;-47
2022/11/20 07:48:59;;;;;;;;;;;;;;;4.77;100.00;98428.81;5039658;28;19927;-50
2022/11/20 07:51:25;;;;;;;;;;;;;;;4.86;100.00;98427.78;5058724;28;20507;-49
2022/11/20 07:53:51;;;;;;;;;;;;;;;4.93;100.00;98425.13;5059496;28;20027;-49
2022/11/20 07:56:16;;;;;;;;;;;;;;;4.93;100.00;98425.13;5059091;28;19999;-50
2022/11/20 07:58:42;;;;;;;;;;;;;;;4.80;100.00;98426.19;5057032;28;19921;-50
2022/11/20 08:01:07;;;;;;;;;;;;;;;5.04;100.00;98427.47;5038300;28;20058;-48
2022/11/20 08:03:33;;;;;;;;;;;;;;;5.06;100.00;98422.31;5060784;28;19912;-48
2022/11/20 08:05:58;;;;;;;;;;;;;;;5.22;100.00;98426.25;5024777;28;19920;-48
2022/11/20 08:08:24;;;;;;;;;;;;;;;5.31;100.00;98415.00;5058480;28;19923;-49
2022/11/20 08:10:49;;;;;;;;;;;;;;;5.28;100.00;98415.94;5059019;28;19921;-50
2022/11/20 08:15:58;;;;;;;;;;;;;;;5.68;100.00;98407.44;5059893;28;20020;-48
2022/11/20 08:18:23;;;;;;;;;;;;;;;5.80;100.00;98409.72;5056432;28;19925;-47
2022/11/20 08:20:48;;;;;;;;;;;;;;;5.80;100.00;98404.59;5056825;28;19960;-48
2022/11/20 08:23:14;;;;;;;;;;;;;;;5.95;100.00;98407.72;5059437;28;19963;-48
2022/11/20 08:25:39;;;;;;;;;;;;;;;5.99;100.00;98406.78;5041627;28;19913;-50
2022/11/20 08:28:06;;;;;;;;;;;;;;;5.98;100.00;98410.22;5058675;28;19916;-48
2022/11/20 08:30:31;;;;;;;;;;;;;;;5.58;100.00;98411.06;5039990;28;19920;-49
2022/11/20 08:33:00;;;;;;;;;;;;;;;5.08;100.00;98433.34;5059208;28;19925;-48
2022/11/20 08:35:26;;;;;;;;;;;;;;;5.14;100.00;98428.13;5057737;28;19912;-51
2022/11/20 08:37:51;;;;;;;;;;;;;;;5.26;100.00;98443.19;5058672;28;19920;-49
2022/11/20 08:40:16;;;;;;;;;;;;;;;5.71;100.00;98430.34;5055910;28;19928;-51
2022/11/20 08:42:48;;;;;;;;;;;;;;;5.32;100.00;98432.88;5039428;28;19917;-50
2022/11/20 08:45:13;;;;;;;;;;;;;;;5.20;100.00;98439.06;5058495;28;19958;-49
2022/11/20 08:47:39;;;;;;;;;;;;;;;5.24;100.00;98434.72;5057856;28;20476;-52
2022/11/20 08:50:04;;;;;;;;;;;;;;;5.04;100.00;98447.88;5057556;28;19924;-50
2022/11/20 08:52:29;;;;;;;;;;;;;;;5.32;100.00;98443.09;5059515;28;19920;-49
2022/11/20 08:54:55;;;;;;;;;;;;;;;5.59;100.00;98440.84;5057583;28;19931;-48
2022/11/20 08:57:20;;;;;;;;;;;;;;;5.59;100.00;98440.84;5059150;28;20015;-48
2022/11/20 08:59:45;;;;;;;;;;;;;;;5.46;100.00;98440.25;5037572;28;19967;-50
2022/11/20 09:02:11;;;;;;;;;;;;;;;5.79;100.00;98437.84;5039672;28;19920;-51
2022/11/20 09:04:37;;;;;;;;;;;;;;;5.58;100.00;98436.59;5041304;28;20451;-48
2022/11/20 09:07:02;;;;;;;;;;;;;;;5.80;100.00;98435.25;5023308;28;19920;-51
2022/11/20 09:09:28;;;;;;;;;;;;;;;5.45;100.00;98433.44;5057967;28;19932;-50
2022/11/20 09:11:53;;;;;;;;;;;;;;;5.40;100.00;98430.16;5055886;28;20348;-49
2022/11/20 09:14:18;;;;;;;;;;;;;;;5.69;100.00;98431.28;5039511;28;19920;-49
2022/11/20 09:16:44;;;;;;;;;;;;;;;5.85;100.00;98427.50;5057825;28;19931;-50
2022/11/20 09:19:10;;;;;;;;;;;;;;;5.18;100.00;98430.59;5039804;28;19931;-51
2022/11/20 09:21:35;;;;;;;;;;;;;;;5.33;100.00;98434.53;5038957;28;19920;-50
2022/11/20 09:24:00;;;;;;;;;;;;;;;5.45;100.00;98439.41;5057085;28;19925;-51
2022/11/20 09:26:25;;;;;;;;;;;;;;;5.77;100.00;98432.78;5057818;28;20010;-50
2022/11/20 09:28:51;;;;;;;;;;;;;;;5.84;100.00;98420.72;5036313;28;19921;-49
2022/11/20 09:31:26;;;;;;;;;;;;;;;5.73;100.00;98417.56;5049479;28;19977;-51
2022/11/20 09:33:51;;;;;;;;;;;;;;;5.37;100.00;98431.06;5055111;28;19978;-49
2022/11/20 09:36:18;;;;;;;;;;;;;;;5.65;100.00;98427.94;5057575;28;19971;-50
2022/11/20 09:38:43;;;;;;;;;;;;;;;6.36;100.00;98428.91;5034941;28;21022;-52
2022/11/20 09:41:27;;;;;;;;;;;;;;;5.75;100.00;98416.66;5053772;28;20018;-50
2022/11/20 09:44:07;;;;;;;;;;;;;;;6.18;100.00;98425.94;5057438;28;19916;-53
2022/11/20 09:46:45;;;;;;;;;;;;;;;5.28;100.00;98431.25;5056852;28;19921;-49
2022/11/20 09:49:33;;;;;;;;;;;;;;;5.97;100.00;98434.91;5057923;28;20305;-53
2022/11/20 09:51:59;;;;;;;;;;;;;;;6.65;100.00;98411.13;5040527;28;19920;-51
2022/11/20 09:54:35;;;;;;;;;;;;;;;7.44;100.00;98402.16;5057224;28;20408;-51
2022/11/20 09:57:01;;;;;;;;;;;;;;;7.52;100.00;98400.19;5039197;28;19924;-52
2022/11/20 09:59:40;;;;;;;;;;;;;;;6.97;100.00;98390.69;5025985;28;19944;-51
2022/11/20 10:02:15;;;;;;;;;;;;;;;7.12;100.00;98391.09;5043449;28;19912;-53
2022/11/20 10:04:42;;;;;;;;;;;;;;;6.39;100.00;98393.88;5060788;28;19969;-52
2022/11/20 10:07:11;;;;;;;;;;;;;;;6.54;100.00;98392.66;5042158;28;19966;-49
2022/11/20 10:09:38;;;;;;;;;;;;;;;7.12;100.00;98385.97;5038183;28;19924;-51
2022/11/20 10:12:14;;;;;;;;;;;;;;;6.46;100.00;98374.13;5042443;28;19994;-51
2022/11/20 10:14:45;;;;;;;;;;;;;;;6.04;100.00;98372.59;5043283;28;19916;-50
2022/11/20 10:17:23;;;;;;;;;;;;;;;6.07;100.00;98385.28;5058379;28;19925;-50
2022/11/20 10:19:54;;;;;;;;;;;;;;;6.67;100.00;98373.53;5059499;28;19955;-52
2022/11/20 10:22:40;;;;;;;;;;;;;;;6.61;100.00;98368.56;5041690;28;19920;-51
2022/11/20 10:25:07;;;;;;;;;;;;;;;6.99;100.00;98366.72;5061509;28;19916;-51
2022/11/20 10:27:32;;;;;;;;;;;;;;;7.52;100.00;98361.75;5060942;28;19920;-50
2022/11/20 10:30:13;;;;;;;;;;;;;;;7.92;100.00;98345.16;5060665;28;19923;-50
2022/11/20 10:32:40;;;;;;;;;;;;;;;7.99;100.00;98339.84;5042989;28;19924;-52
2022/11/20 10:35:17;;;;;;;;;;;;;;;6.20;100.00;98349.19;5038756;28;19917;-50
2022/11/20 10:37:43;;;;;;;;;;;;;;;6.82;100.00;98350.97;5059007;28;19999;-50
2022/11/20 10:40:20;;;;;;;;;;;;;;;7.38;100.00;98340.84;5056675;28;19928;-50
2022/11/20 10:42:51;;;;;;;;;;;;;;;6.97;100.00;98335.19;5040801;28;19924;-49
2022/11/20 10:45:25;;;;;;;;;;;;;;;6.63;100.00;98333.56;5035292;28;19924;-54
2022/11/20 10:47:54;;;;;;;;;;;;;;;6.74;100.00;98327.31;5040276;28;19917;-49
2022/11/20 10:50:20;;;;;;;;;;;;;;;8.02;100.00;98326.94;5041199;28;19920;-51
2022/11/20 10:52:48;;;;;;;;;;;;;;;7.52;100.00;98332.75;5054740;28;19927;-52
2022/11/20 10:55:22;;;;;;;;;;;;;;;7.18;100.00;98338.03;5060384;28;19916;-49
2022/11/20 10:58:06;;;;;;;;;;;;;;;7.31;100.00;98340.19;5041499;28;20290;-53
2022/11/20 11:00:32;;;;;;;;;;;;;;;6.61;100.00;98348.09;5061381;28;19921;-52
2022/11/20 11:03:02;;;;;;;;;;;;;;;7.12;100.00;98346.75;5060832;28;19912;-50
2022/11/20 11:05:34;;;;;;;;;;;;;;;7.44;100.00;98335.56;5059050;28;19969;-52
2022/11/20 11:08:00;;;;;;;;;;;;;;;7.61;100.00;98329.06;5060096;28;19981;-53
2022/11/20 11:10:34;;;;;;;;;;;;;;;8.42;100.00;98335.91;5058469;28;19920;-52
2022/11/20 11:12:59;;;;;;;;;;;;;;;8.84;100.00;98318.16;5059703;28;19997;-53
2022/11/20 11:15:50;;;;;;;;;;;;;;;8.62;100.00;98305.25;5061058;28;19928;-51
2022/11/20 11:18:42;;;;;;;;;;;;;;;8.53;100.00;98293.59;5038828;28;19959;-50
2022/11/20 11:21:08;;;;;;;;;;;;;;;7.39;100.00;98304.13;5053667;28;19920;-52
2022/11/20 11:23:40;;;;;;;;;;;;;;;7.30;100.00;98296.72;5024745;28;19973;-52
2022/11/20 11:26:06;;;;;;;;;;;;;;;8.49;100.00;98294.59;5060807;28;19923;-50
2022/11/20 11:28:31;;;;;;;;;;;;;;;8.58;100.00;98290.84;5024700;28;20010;-50
2022/11/20 11:30:57;;;;;;;;;;;;;;;8.75;100.00;98293.63;5041357;28;19979;-52
2022/11/20 11:33:23;;;;;;;;;;;;;;;8.51;100.00;98294.53;5059493;28;20412;-51
2022/11/20 11:35:52;;;;;;;;;;;;;;;8.81;100.00;98291.78;5061361;28;19923;-49
2022/11/20 11:38:34;;;;;;;;;;;;;;;8.73;100.00;98285.16;5057981;28;19917;-52
2022/11/20 11:40:59;;;;;;;;;;;;;;;8.51;100.00;98279.13;5059215;28;19929;-50
2022/11/20 11:46:29;;;;;;;;;;;;;;;8.76;100.00;98290.19;5043914;28;20826;-52
2022/11/20 11:49:08;;;;;;;;;;;;;;;8.72;100.00;98288.63;5060107;28;19955;-51
2022/11/20 11:51:36;;;;;;;;;;;;;;;7.85;100.00;98279.59;5042198;28;19916;-49
2022/11/20 11:54:01;;;;;;;;;;;;;;;8.11;100.00;98277.91;5042668;28;20357;-52
2022/11/20 11:56:27;;;;;;;;;;;;;;;7.97;100.00;98261.25;5041803;28;19974;-49
2022/11/20 11:58:52;;;;;;;;;;;;;;;7.75;100.00;98262.84;5029275;28;19924;-52
2022/11/20 12:01:24;;;;;;;;;;;;;;;7.74;100.00;98269.69;5042682;28;19954;-48
2022/11/20 12:04:05;;;;;;;;;;;;;;;7.57;100.00;98268.53;5042020;28;19946;-50
2022/11/20 12:06:31;;;;;;;;;;;;;;;8.40;100.00;98260.69;5053626;28;20304;-48
2022/11/20 12:08:56;;;;;;;;;;;;;;;7.90;100.00;98264.91;5054896;28;19921;-49
2022/11/20 12:11:22;;;;;;;;;;;;;;;8.18;100.00;98269.09;5059869;28;20010;-50
2022/11/20 12:13:58;;;;;;;;;;;;;;;8.35;100.00;98259.09;5056885;28;19921;-49
2022/11/20 12:16:23;;;;;;;;;;;;;;;7.92;100.00;98270.00;5040155;28;19981;-50
2022/11/20 12:18:49;;;;;;;;;;;;;;;8.08;100.00;98275.44;5039950;28;20394;-49
2022/11/20 12:21:20;;;;;;;;;;;;;;;8.04;100.00;98263.63;5056459;28;19932;-49
2022/11/20 12:23:48;;;;;;;;;;;;;;;8.33;100.00;98258.31;5060039;28;20219;-51
2022/11/20 12:26:28;;;;;;;;;;;;;;;8.45;100.00;98253.69;5039380;28;19932;-48
2022/11/20 12:29:06;;;;;;;;;;;;;;;8.44;100.00;98237.47;5054744;28;20070;-48
2022/11/20 12:31:39;;;;;;;;;;;;;;;8.70;100.00;98239.06;5041108;28;19977;-49
2022/11/20 12:34:10;;;;;;;;;;;;;;;8.81;100.00;98225.03;5024375;28;19927;-51
2022/11/20 12:37:02;;;;;;;;;;;;;;;8.57;100.00;98222.44;5042219;28;20005;-49
2022/11/20 12:39:27;;;;;;;;;;;;;;;8.62;100.00;98237.66;5052505;28;20956;-51
2022/11/20 12:45:10;;;;;;;;;;;;;;;8.49;100.00;98240.69;5059589;28;20009;-51
2022/11/20 12:47:47;;;;;;;;;;;;;;;8.95;100.00;98225.31;5059576;28;20197;-50
2022/11/20 12:50:15;;;;;;;;;;;;;;;7.53;100.00;98237.91;5035489;28;19930;-49
2022/11/20 12:52:44;;;;;;;;;;;;;;;8.03;100.00;98236.28;5040464;28;19924;-50
2022/11/20 12:55:14;;;;;;;;;;;;;;;8.41;100.00;98211.88;5039578;28;19920;-50
2022/11/20 12:57:50;;;;;;;;;;;;;;;7.35;100.00;98225.69;5027840;28;20036;-50
2022/11/20 13:00:20;;;;;;;;;;;;;;;8.03;100.00;98223.47;5034486;28;19924;-50
2022/11/20 13:02:54;;;;;;;;;;;;;;;8.52;100.00;98206.38;5054334;28;20011;-49